Springport, Indiana
Current Conditions -  °F | °C
As of 10:53 AM on Thursday 30 Oct 2014 (Local Time) from KMIE Reporting Station
Overcast Overcast  
Wind Chill: 46°   Ceiling: 3500
Heat Index: 46°   Visibility: 10mi
Dew Point: 35°   Wind: 3mph
Humidity: 66%   Direction: 340°NNW
Pressure: 30.16"   Gusts: NA
Location:  40.05°N, 85.39°W
Report Text: KMIE 301453Z 34003KT 10SM OVC035 08/02 A3016 RMK AO2 SLP214 T00780017 50004
Loading
Personal Weather Stations






























Interactive Weather Map
Tropical Storm Tracking
New forecast layout! Learn more

10-Day Weather Forecast

Advertisements
Track Severe Weather on mobile